createdAt,value
2018-06-22T00:01:59.303Z,94.50
2018-06-22T00:04:28.717Z,94.30
2018-06-22T00:06:58.058Z,94.50
2018-06-22T00:09:27.421Z,95.40
2018-06-22T00:11:56.814Z,96.30
2018-06-22T00:14:26.221Z,90.30
2018-06-22T00:16:55.646Z,86.80
2018-06-22T00:19:25.022Z,91.80
2018-06-22T00:21:54.378Z,87.80
2018-06-22T00:24:23.726Z,88.60
2018-06-22T00:29:22.186Z,87.50
2018-06-22T00:31:55.918Z,88.40
2018-06-22T00:34:25.305Z,88.20
2018-06-22T00:36:54.631Z,89.30
2018-06-22T00:44:26.637Z,91.20
2018-06-22T00:46:56.002Z,91.60
2018-06-22T00:49:25.433Z,94.90
2018-06-22T00:51:54.821Z,92.70
2018-06-22T00:54:24.242Z,93.40
2018-06-22T00:56:53.633Z,92.90
2018-06-22T00:59:22.977Z,93.00
2018-06-22T01:01:53.357Z,93.10
2018-06-22T01:04:22.691Z,93.80
2018-06-22T01:09:21.265Z,95.10
2018-06-22T01:12:13.326Z,96.70
2018-06-22T01:14:42.710Z,97.20
2018-06-22T01:17:12.102Z,97.80
2018-06-22T01:20:19.489Z,98.80
2018-06-22T01:22:48.806Z,98.70
2018-06-22T01:25:18.223Z,99.30
2018-06-22T01:27:47.609Z,99.90
2018-06-22T01:30:19.001Z,99.90
2018-06-22T01:32:48.370Z,99.90
2018-06-22T01:35:17.638Z,99.90
2018-06-22T01:37:46.945Z,99.90
2018-06-22T01:40:21.477Z,99.90
2018-06-22T01:42:50.787Z,99.90
2018-06-22T01:45:20.195Z,99.90
2018-06-22T01:47:49.590Z,99.90
2018-06-22T01:50:29.994Z,99.90
2018-06-22T01:52:59.325Z,99.90
2018-06-22T01:55:28.746Z,99.90
2018-06-22T01:57:58.209Z,99.90
2018-06-22T02:00:31.946Z,99.90
2018-06-22T02:05:30.458Z,99.90
2018-06-22T02:07:59.953Z,99.90
2018-06-22T02:13:38.237Z,99.90
2018-06-22T02:16:07.645Z,99.90
2018-06-22T02:18:37.265Z,99.90
2018-06-22T02:21:16.157Z,99.90
2018-06-22T02:23:45.485Z,99.90
2018-06-22T02:26:14.920Z,99.90
2018-06-22T02:28:44.284Z,99.90
2018-06-22T02:31:18.973Z,99.90
2018-06-22T02:33:48.326Z,99.90
2018-06-22T02:36:17.731Z,99.90
2018-06-22T02:38:47.137Z,99.90
2018-06-22T02:41:24.754Z,99.90
2018-06-22T02:43:54.153Z,99.90
2018-06-22T02:46:23.497Z,99.90
2018-06-22T02:48:52.965Z,99.90
2018-06-22T02:51:36.393Z,99.90
2018-06-22T02:54:05.812Z,99.90
2018-06-22T02:56:35.190Z,99.90
2018-06-22T02:59:04.681Z,99.90
2018-06-22T03:01:35.094Z,99.90
2018-06-22T03:04:04.454Z,99.90
2018-06-22T03:06:33.845Z,99.90
2018-06-22T03:09:03.185Z,99.90
2018-06-22T03:11:33.586Z,99.90
2018-06-22T03:14:02.916Z,99.90
2018-06-22T03:16:32.374Z,99.90
2018-06-22T03:19:01.531Z,99.90
2018-06-22T03:21:32.661Z,99.90
2018-06-22T03:24:01.761Z,99.90
2018-06-22T03:26:30.854Z,99.90
2018-06-22T03:29:00.030Z,99.90
2018-06-22T03:33:58.956Z,99.90
2018-06-22T03:36:28.086Z,99.90
2018-06-22T03:41:28.609Z,99.90
2018-06-22T03:43:58.009Z,99.90
2018-06-22T03:46:27.398Z,99.90
2018-06-22T03:48:57.018Z,99.90
2018-06-22T03:55:15.985Z,99.90
2018-06-22T03:57:45.325Z,99.90
2018-06-22T04:00:27.630Z,99.90
2018-06-22T04:02:57.050Z,99.90
2018-06-22T04:05:26.449Z,99.90
2018-06-22T04:07:55.803Z,99.90
2018-06-22T04:10:26.266Z,99.90
2018-06-22T04:12:55.632Z,99.90
2018-06-22T04:17:55.019Z,99.90
2018-06-22T04:20:25.635Z,99.90
2018-06-22T04:22:55.144Z,99.90
2018-06-22T04:25:25.375Z,99.90
2018-06-22T04:27:54.727Z,99.90
2018-06-22T04:30:34.853Z,99.90
2018-06-22T04:33:04.318Z,99.90
2018-06-22T04:35:33.836Z,99.90
2018-06-22T04:38:03.201Z,99.90
2018-06-22T04:40:33.626Z,99.90
2018-06-22T04:43:02.957Z,99.90
2018-06-22T04:48:01.346Z,99.90
2018-06-22T04:50:43.501Z,99.90
2018-06-22T04:53:14.313Z,99.90
2018-06-22T04:55:43.710Z,99.90
2018-06-22T04:58:13.205Z,99.90
2018-06-22T05:01:02.022Z,99.90
2018-06-22T05:03:31.444Z,99.90
2018-06-22T05:06:00.805Z,99.90
2018-06-22T05:08:30.338Z,99.90
2018-06-22T05:11:33.901Z,99.90
2018-06-22T05:14:03.307Z,99.90
2018-06-22T05:16:32.698Z,99.90
2018-06-22T05:19:02.035Z,99.90
2018-06-22T05:21:32.454Z,99.90
2018-06-22T05:24:01.870Z,99.90
2018-06-22T05:26:31.297Z,99.90
2018-06-22T05:29:00.681Z,99.90
2018-06-22T05:31:31.166Z,99.90
2018-06-22T05:34:00.590Z,99.90
2018-06-22T05:36:29.981Z,99.90
2018-06-22T05:38:59.385Z,99.90
2018-06-22T05:41:37.482Z,99.90
2018-06-22T05:44:06.886Z,99.90
2018-06-22T05:46:36.834Z,99.90
2018-06-22T05:49:06.239Z,99.90
2018-06-22T05:51:36.717Z,99.90
2018-06-22T05:54:06.073Z,99.90
2018-06-22T05:56:35.551Z,99.90
2018-06-22T05:59:04.930Z,99.90
2018-06-22T06:02:02.321Z,99.90
2018-06-22T06:04:31.751Z,99.90
2018-06-22T06:07:01.094Z,99.90
2018-06-22T06:09:30.542Z,99.90
2018-06-22T06:11:59.925Z,99.90
2018-06-22T06:14:29.326Z,99.90
2018-06-22T06:16:58.722Z,99.90
2018-06-22T06:19:27.990Z,99.90
2018-06-22T06:21:57.350Z,99.90
2018-06-22T06:26:55.861Z,99.90
2018-06-22T06:29:25.249Z,99.90
2018-06-22T06:31:54.670Z,99.90
2018-06-22T06:34:24.096Z,99.90
2018-06-22T06:36:53.450Z,99.90
2018-06-22T06:39:22.845Z,99.90
2018-06-22T06:41:53.314Z,99.90
2018-06-22T06:44:22.632Z,99.90
2018-06-22T06:46:52.023Z,99.90
2018-06-22T06:49:21.677Z,99.90
2018-06-22T06:52:08.190Z,99.90
2018-06-22T06:54:37.562Z,99.90
2018-06-22T06:57:06.942Z,99.90
2018-06-22T06:59:36.298Z,99.90
2018-06-22T07:02:05.785Z,99.90
2018-06-22T07:04:35.162Z,99.90
2018-06-22T07:07:04.499Z,99.90
2018-06-22T07:09:33.802Z,99.90
2018-06-22T07:12:03.191Z,99.90
2018-06-22T07:14:32.570Z,99.90
2018-06-22T07:17:01.939Z,99.90
2018-06-22T07:19:31.403Z,99.90
2018-06-22T07:22:00.717Z,99.90
2018-06-22T07:24:30.105Z,99.90
2018-06-22T07:26:59.433Z,99.90
2018-06-22T07:29:28.901Z,99.90
2018-06-22T07:31:58.345Z,99.90
2018-06-22T07:34:27.725Z,99.90
2018-06-22T07:39:26.838Z,99.90
2018-06-22T07:41:56.211Z,99.90
2018-06-22T07:44:25.630Z,99.90
2018-06-22T07:46:55.006Z,99.90
2018-06-22T07:49:24.341Z,99.90
2018-06-22T07:51:53.726Z,99.90
2018-06-22T07:54:23.109Z,99.90
2018-06-22T07:56:52.506Z,99.90
2018-06-22T07:59:21.926Z,99.90
2018-06-22T08:01:55.790Z,99.90
2018-06-22T08:04:25.237Z,99.90
2018-06-22T08:06:54.673Z,99.90
2018-06-22T08:09:24.065Z,99.90
2018-06-22T08:11:53.481Z,99.90
2018-06-22T08:14:22.884Z,99.90
2018-06-22T08:19:21.318Z,99.90
2018-06-22T08:21:54.034Z,99.90
2018-06-22T08:24:23.442Z,99.90
2018-06-22T08:26:52.855Z,99.90
2018-06-22T08:29:22.248Z,99.90
2018-06-22T08:31:53.597Z,99.90
2018-06-22T08:34:22.922Z,99.90
2018-06-22T08:36:52.350Z,99.90
2018-06-22T08:39:21.665Z,99.90
2018-06-22T08:42:10.199Z,99.90
2018-06-22T08:44:39.545Z,99.90
2018-06-22T08:47:08.975Z,99.90
2018-06-22T08:49:50.933Z,99.90
2018-06-22T08:52:20.374Z,99.90
2018-06-22T08:54:49.693Z,99.90
2018-06-22T08:57:19.030Z,99.90
2018-06-22T09:00:16.878Z,99.90
2018-06-22T09:02:46.329Z,99.90
2018-06-22T09:05:15.710Z,99.90
2018-06-22T09:07:45.046Z,99.90
2018-06-22T09:10:15.490Z,99.90
2018-06-22T09:12:44.992Z,99.90
2018-06-22T09:15:14.363Z,99.90
2018-06-22T09:17:43.794Z,99.90
2018-06-22T09:20:22.587Z,99.90
2018-06-22T09:22:51.928Z,99.90
2018-06-22T09:25:21.295Z,99.90
2018-06-22T09:27:50.574Z,99.90
2018-06-22T09:31:01.526Z,99.90
2018-06-22T09:33:30.844Z,99.90
2018-06-22T09:36:00.303Z,99.90
2018-06-22T09:38:30.773Z,99.90
2018-06-22T09:41:41.670Z,99.90
2018-06-22T09:44:46.502Z,99.90
2018-06-22T09:47:15.882Z,99.90
2018-06-22T09:50:01.935Z,99.90
2018-06-22T09:52:31.303Z,99.90
2018-06-22T09:55:00.619Z,99.90
2018-06-22T09:57:30.082Z,99.90
2018-06-22T10:00:00.526Z,99.90
2018-06-22T10:02:29.922Z,99.90
2018-06-22T10:04:59.358Z,99.90
2018-06-22T10:07:28.678Z,99.90
2018-06-22T10:10:09.073Z,99.90
2018-06-22T10:12:38.442Z,99.90
2018-06-22T10:15:08.201Z,99.90
2018-06-22T10:17:37.564Z,99.90
2018-06-22T10:20:33.277Z,99.90
2018-06-22T10:23:02.689Z,99.90
2018-06-22T10:25:32.055Z,99.90
2018-06-22T10:28:06.152Z,99.90
2018-06-22T10:30:38.805Z,99.90
2018-06-22T10:33:07.984Z,99.90
2018-06-22T10:35:37.121Z,99.90
2018-06-22T10:38:06.453Z,99.90
2018-06-22T10:40:50.189Z,99.90
2018-06-22T10:43:19.264Z,99.90
2018-06-22T10:45:48.355Z,99.90
2018-06-22T10:48:17.414Z,99.90
2018-06-22T10:50:47.565Z,99.90
2018-06-22T10:53:16.673Z,99.90
2018-06-22T10:55:45.929Z,99.90
2018-06-22T10:58:15.361Z,99.90
2018-06-22T11:00:59.926Z,99.90
2018-06-22T11:03:29.338Z,99.90
2018-06-22T11:05:58.754Z,99.90
2018-06-22T11:08:28.252Z,99.90
2018-06-22T11:11:11.530Z,99.90
2018-06-22T11:13:40.873Z,99.90
2018-06-22T11:16:10.226Z,99.90
2018-06-22T11:18:39.642Z,99.90
2018-06-22T11:21:11.146Z,99.90
2018-06-22T11:23:40.626Z,99.90
2018-06-22T11:26:10.036Z,99.90
2018-06-22T11:28:40.308Z,99.90
2018-06-22T11:31:11.926Z,99.90
2018-06-22T11:33:41.322Z,99.90
2018-06-22T11:36:10.690Z,99.90
2018-06-22T11:38:40.074Z,99.90
2018-06-22T11:41:09.521Z,99.90
2018-06-22T11:43:38.900Z,99.90
2018-06-22T11:46:08.270Z,99.90
2018-06-22T11:48:37.637Z,99.90
2018-06-22T11:51:19.842Z,99.90
2018-06-22T11:53:49.174Z,99.90
2018-06-22T11:56:18.590Z,99.90
2018-06-22T11:58:48.082Z,99.90
2018-06-22T12:01:21.249Z,99.90
2018-06-22T12:03:50.594Z,99.90
2018-06-22T12:06:20.136Z,99.90
2018-06-22T12:08:49.529Z,99.90
2018-06-22T12:13:52.263Z,99.90
2018-06-22T12:16:21.654Z,99.90
2018-06-22T12:21:34.494Z,94.40
2018-06-22T12:24:03.961Z,93.30
2018-06-22T12:26:33.320Z,93.90
2018-06-22T12:29:02.743Z,93.70
2018-06-22T12:31:32.609Z,91.80
2018-06-22T12:34:02.056Z,92.10
2018-06-22T12:36:31.471Z,94.90
2018-06-22T12:39:00.837Z,95.40
2018-06-22T12:41:31.358Z,91.70
2018-06-22T12:44:00.870Z,90.80
2018-06-22T12:46:30.217Z,91.80
2018-06-22T12:48:59.566Z,88.90
2018-06-22T12:51:30.178Z,88.00
2018-06-22T12:53:59.734Z,84.30
2018-06-22T12:56:29.077Z,86.00
2018-06-22T12:58:58.449Z,90.00
2018-06-22T13:01:36.914Z,89.90
2018-06-22T13:04:09.506Z,86.20
2018-06-22T13:06:39.243Z,82.60
2018-06-22T13:09:10.979Z,81.70
2018-06-22T13:11:48.814Z,73.10
2018-06-22T13:14:19.257Z,72.50
2018-06-22T13:16:48.654Z,69.90
2018-06-22T13:19:18.381Z,75.30
2018-06-22T13:21:58.454Z,75.70
2018-06-22T13:24:27.818Z,66.00
2018-06-22T13:26:57.285Z,67.70
2018-06-22T13:29:26.702Z,65.50
2018-06-22T13:32:51.897Z,63.40
2018-06-22T13:35:21.446Z,66.60
2018-06-22T13:37:50.858Z,70.40
2018-06-22T13:40:28.370Z,74.30
2018-06-22T13:42:57.804Z,78.10
2018-06-22T13:45:27.253Z,83.90
2018-06-22T13:47:56.714Z,78.10
2018-06-22T13:50:27.138Z,74.10
2018-06-22T13:52:56.571Z,72.30
2018-06-22T13:55:25.942Z,73.50
2018-06-22T13:57:55.342Z,69.90
2018-06-22T14:00:32.999Z,65.80
2018-06-22T14:03:02.326Z,58.00
2018-06-22T14:05:36.914Z,61.20
2018-06-22T14:08:06.326Z,60.30
2018-06-22T14:10:37.947Z,59.30
2018-06-22T14:13:07.295Z,60.40
2018-06-22T14:15:36.758Z,61.90
2018-06-22T14:18:06.108Z,67.40
2018-06-22T14:20:36.654Z,72.50
2018-06-22T14:23:06.038Z,69.60
2018-06-22T14:25:35.410Z,66.90
2018-06-22T14:28:04.799Z,66.70
2018-06-22T14:30:44.072Z,66.10
2018-06-22T14:33:13.446Z,63.70
2018-06-22T14:35:42.893Z,64.50
2018-06-22T14:38:12.234Z,60.20
2018-06-22T14:43:10.837Z,63.60
2018-06-22T14:45:40.239Z,59.20
2018-06-22T14:48:09.549Z,63.10
2018-06-22T14:50:51.635Z,63.20
2018-06-22T14:53:26.146Z,66.80
2018-06-22T14:56:00.718Z,63.40
2018-06-22T14:58:35.554Z,62.30
2018-06-22T15:01:28.841Z,63.60
2018-06-22T15:04:03.537Z,61.50
2018-06-22T15:06:38.229Z,61.30
2018-06-22T15:09:10.193Z,58.30
2018-06-22T15:11:52.573Z,57.30
2018-06-22T15:14:21.938Z,58.00
2018-06-22T15:16:51.316Z,62.10
2018-06-22T15:19:20.685Z,65.30
2018-06-22T15:22:02.932Z,67.60
2018-06-22T15:24:32.328Z,68.10
2018-06-22T15:27:01.742Z,70.90
2018-06-22T15:29:31.077Z,72.30
2018-06-22T15:32:00.722Z,74.30
2018-06-22T15:34:35.482Z,73.60
2018-06-22T15:37:10.111Z,72.40
2018-06-22T15:39:44.932Z,72.10
2018-06-22T15:42:19.846Z,66.70
2018-06-22T15:44:54.447Z,63.10
2018-06-22T15:47:29.009Z,63.00
2018-06-22T15:50:12.297Z,65.10
2018-06-22T15:52:46.785Z,66.80
2018-06-22T15:55:19.094Z,69.90
2018-06-22T15:57:48.461Z,70.40
2018-06-22T16:00:25.846Z,70.00
2018-06-22T16:03:00.615Z,71.50
2018-06-22T16:05:30.023Z,73.40
2018-06-22T16:10:30.961Z,76.50
2018-06-22T16:13:00.331Z,75.80
2018-06-22T16:15:34.762Z,77.00
2018-06-22T16:18:09.398Z,76.60
2018-06-22T16:20:44.261Z,75.90
2018-06-22T16:23:18.892Z,77.60
2018-06-22T16:25:53.369Z,79.50
2018-06-22T16:28:22.809Z,79.40
2018-06-22T16:30:53.315Z,79.60
2018-06-22T16:33:22.682Z,79.40
2018-06-22T16:35:52.053Z,80.70
2018-06-22T16:38:21.407Z,80.60
2018-06-22T16:40:51.860Z,80.50
2018-06-22T16:43:21.329Z,82.30
2018-06-22T16:45:50.734Z,82.40
2018-06-22T16:48:20.170Z,83.40
2018-06-22T16:51:13.091Z,84.90
2018-06-22T16:53:42.626Z,82.00
2018-06-22T16:58:41.763Z,80.20
2018-06-22T17:01:26.082Z,80.70
2018-06-22T17:03:55.506Z,81.80
2018-06-22T17:06:25.240Z,83.90
2018-06-22T17:08:59.882Z,84.90
2018-06-22T17:11:51.349Z,85.60
2018-06-22T17:14:25.933Z,85.70
2018-06-22T17:17:00.705Z,87.90
2018-06-22T17:19:30.172Z,88.40
2018-06-22T17:21:59.603Z,89.30
2018-06-22T17:24:29.006Z,88.60
2018-06-22T17:26:58.424Z,90.60
2018-06-22T17:29:27.903Z,91.30
2018-06-22T17:31:58.234Z,91.70
2018-06-22T17:34:27.650Z,93.30
2018-06-22T17:36:57.049Z,93.90
2018-06-22T17:39:26.513Z,94.20
2018-06-22T17:42:11.174Z,93.60
2018-06-22T17:44:40.600Z,93.40
2018-06-22T17:47:10.011Z,94.80
2018-06-22T17:49:39.429Z,95.90
2018-06-22T17:52:08.816Z,95.70
2018-06-22T17:54:38.241Z,95.90
2018-06-22T17:57:07.681Z,97.30
2018-06-22T17:59:42.141Z,96.80
2018-06-22T18:02:16.766Z,97.60
2018-06-22T18:04:50.208Z,97.90
2018-06-22T18:07:25.167Z,98.20
2018-06-22T18:10:01.946Z,98.10
2018-06-22T18:12:36.675Z,97.00
2018-06-22T18:15:06.417Z,96.80
2018-06-22T18:17:35.838Z,97.00
2018-06-22T18:20:08.681Z,97.20
2018-06-22T18:22:38.201Z,97.40
2018-06-22T18:25:07.606Z,97.90
2018-06-22T18:27:38.603Z,98.10
2018-06-22T18:30:36.064Z,97.10
2018-06-22T18:33:05.421Z,97.70
2018-06-22T18:35:34.806Z,97.00
2018-06-22T18:38:04.271Z,97.20
2018-06-22T18:40:38.838Z,97.20
2018-06-22T18:43:12.312Z,97.90
2018-06-22T18:45:41.730Z,97.30
2018-06-22T18:48:11.095Z,97.80
2018-06-22T18:50:48.710Z,97.50
2018-06-22T18:53:23.778Z,97.90
2018-06-22T18:55:58.415Z,98.80
2018-06-22T18:58:32.813Z,99.60
2018-06-22T19:01:14.750Z,99.90
2018-06-22T19:03:48.145Z,99.90
2018-06-22T19:06:17.821Z,99.90
2018-06-22T19:08:47.325Z,99.90
2018-06-22T19:11:39.697Z,99.90
2018-06-22T19:14:09.603Z,99.90
2018-06-22T19:16:40.421Z,99.90
2018-06-22T19:21:44.251Z,99.90
2018-06-22T19:24:13.659Z,99.90
2018-06-22T19:26:57.371Z,99.90
2018-06-22T19:29:26.773Z,99.90
2018-06-22T19:33:00.194Z,99.90
2018-06-22T19:35:29.582Z,99.90
2018-06-22T19:37:58.996Z,99.90
2018-06-22T19:41:10.149Z,99.90
2018-06-22T19:43:44.486Z,99.90
2018-06-22T19:46:19.028Z,99.90
2018-06-22T19:48:53.621Z,99.90
2018-06-22T19:51:28.553Z,99.90
2018-06-22T19:54:00.746Z,99.90
2018-06-22T19:56:30.165Z,99.90
2018-06-22T19:58:59.541Z,99.90
2018-06-22T20:01:43.482Z,99.90
2018-06-22T20:04:12.582Z,99.90
2018-06-22T20:06:41.675Z,99.90
2018-06-22T20:09:11.482Z,99.90
2018-06-22T20:11:41.937Z,99.90
2018-06-22T20:14:11.315Z,99.90
2018-06-22T20:16:40.669Z,99.90
2018-06-22T20:19:10.289Z,99.90
2018-06-22T20:21:43.806Z,99.90
2018-06-22T20:24:13.230Z,99.90
2018-06-22T20:26:42.619Z,99.90
2018-06-22T20:29:12.062Z,99.90
2018-06-22T20:32:15.329Z,99.90
2018-06-22T20:35:49.828Z,99.90
2018-06-22T20:38:24.129Z,99.90
2018-06-22T20:40:59.587Z,99.90
2018-06-22T20:44:32.701Z,99.90
2018-06-22T20:47:07.623Z,99.90
2018-06-22T20:49:44.300Z,99.90
2018-06-22T20:52:13.658Z,99.90
2018-06-22T20:54:43.073Z,99.90
2018-06-22T20:57:12.418Z,99.90
2018-06-22T20:59:55.742Z,99.90
2018-06-22T21:02:25.121Z,99.90
2018-06-22T21:04:54.580Z,99.90
2018-06-22T21:07:23.954Z,99.90
2018-06-22T21:10:32.069Z,99.90
2018-06-22T21:13:01.807Z,99.90
2018-06-22T21:15:30.884Z,99.90
2018-06-22T21:18:00.419Z,99.90
2018-06-22T21:21:35.242Z,99.90
2018-06-22T21:24:04.663Z,99.90
2018-06-22T21:26:34.050Z,99.90
2018-06-22T21:29:08.540Z,99.90
2018-06-22T21:32:00.459Z,99.90
2018-06-22T21:34:33.422Z,99.90
2018-06-22T21:37:07.928Z,99.90
2018-06-22T21:39:37.253Z,99.90
2018-06-22T21:42:06.718Z,99.90
2018-06-22T21:44:36.109Z,99.90
2018-06-22T21:47:05.545Z,99.90
2018-06-22T21:49:34.834Z,99.90
2018-06-22T21:52:04.286Z,99.90
2018-06-22T21:54:33.706Z,99.90
2018-06-22T21:57:03.194Z,99.90
2018-06-22T21:59:32.590Z,99.90
2018-06-22T22:02:02.002Z,99.90
2018-06-22T22:04:31.469Z,99.90
2018-06-22T22:07:01.042Z,99.90
2018-06-22T22:09:34.521Z,99.90
2018-06-22T22:12:03.915Z,99.90
2018-06-22T22:14:33.237Z,99.90
2018-06-22T22:19:31.773Z,99.90
2018-06-22T22:22:01.143Z,99.90
2018-06-22T22:24:30.521Z,99.90
2018-06-22T22:26:59.921Z,99.90
2018-06-22T22:29:29.338Z,99.90
2018-06-22T22:31:58.751Z,99.90
2018-06-22T22:34:28.143Z,99.90
2018-06-22T22:36:57.481Z,99.90
2018-06-22T22:39:26.857Z,99.90
2018-06-22T22:41:57.301Z,99.90
2018-06-22T22:44:26.729Z,99.90
2018-06-22T22:46:56.110Z,99.90
2018-06-22T22:49:25.420Z,99.90
2018-06-22T22:51:59.813Z,99.90
2018-06-22T22:54:29.169Z,99.90
2018-06-22T22:59:27.622Z,99.90
2018-06-22T23:02:19.062Z,99.90
2018-06-22T23:04:48.426Z,99.90
2018-06-22T23:07:17.893Z,99.90
2018-06-22T23:09:56.376Z,99.90
2018-06-22T23:12:25.797Z,99.90
2018-06-22T23:14:55.162Z,99.90
2018-06-22T23:17:24.574Z,99.90
2018-06-22T23:20:12.442Z,99.90
2018-06-22T23:22:58.963Z,99.90
2018-06-22T23:25:28.305Z,99.90
2018-06-22T23:27:57.637Z,99.90
2018-06-22T23:30:38.837Z,99.90
2018-06-22T23:33:08.226Z,99.90
2018-06-22T23:35:37.615Z,99.90
2018-06-22T23:38:07.210Z,99.90
2018-06-22T23:40:54.858Z,99.90
2018-06-22T23:43:24.253Z,99.90
2018-06-22T23:45:53.667Z,99.90
2018-06-22T23:48:23.097Z,99.90
2018-06-22T23:51:02.321Z,99.90
2018-06-22T23:53:31.685Z,99.90
2018-06-22T23:56:01.049Z,99.90
2018-06-22T23:58:30.410Z,99.90
